Latest Weather Observations for Inverell RS

IDN60801

Issued at 10:02 pm EDT Saturday 25 February 2017 (issued every 30 minutes, with the page automatically refreshed every 10 minutes)

About weather observations | Map of weather stations | Latest weather observations for NSW | Other Formats
Station Details ID: 056018 Name: INVERELL RESEARCH CENTRE Lat: -29.78 Lon: 151.08 Height: 664.0 m
Data from the previous 72 hours. | See also: Recent months at Inverell RS
Date/Time
EDT
Temp
°C
App
Temp
°C
Dew
Point
°C
Rel
Hum
%
Delta-T
°C
Wind Press
QNH
hPa
Press
MSL
hPa
Rain since
9am
mm
Dir  Spd
km/h
Gust
km/h
Spd
kts
Gust
kts
25/10:00pm 20.1 20.5 14.8 71 3.2 N 6 7 3 4 1018.7 - 0.4
25/09:30pm 20.1 20.7 15.3 74 2.9 N 6 7 3 4 1018.4 - 0.2
25/09:00pm 19.6 20.0 15.3 76 2.6 ESE 7 9 4 5 1017.9 1014.5 0.2
25/08:30pm 21.0 20.7 13.2 61 4.6 SE 7 13 4 7 1017.7 - 0.0
25/08:00pm 20.4 19.7 11.9 58 4.9 E 7 11 4 6 1016.8 - 0.0
25/07:30pm 21.1 18.9 10.8 51 5.8 ESE 13 19 7 10 1016.2 - 0.0
25/07:00pm 22.9 20.8 12.5 52 6.1 E 15 26 8 14 1016.0 - 0.0
25/06:30pm 24.9 21.3 9.9 38 8.5 SE 19 33 10 18 1015.9 - 0.0
25/06:00pm 26.5 24.2 8.9 33 9.9 SW 11 17 6 9 1015.3 1011.8 0.0
25/05:30pm 26.2 24.2 10.1 36 9.2 W 11 15 6 8 1014.9 - 0.0
25/05:00pm 27.7 25.9 9.5 32 10.4 S 9 13 5 7 1014.8 - 0.0
25/04:30pm 28.6 27.3 11.3 34 10.2 SE 9 13 5 7 1014.9 - 0.0
25/04:00pm 30.0 28.0 10.3 29 11.5 SE 11 17 6 9 1015.1 - 0.0
25/03:30pm 29.5 27.5 10.3 30 11.2 S 11 17 6 9 1015.9 - 0.0
25/03:00pm 29.5 27.9 11.7 33 10.6 S 11 17 6 9 1016.4 1013.0 0.0
25/02:30pm 29.4 28.5 12.5 35 10.2 WSW 9 19 5 10 1016.9 - 0.0
25/02:00pm 28.8 28.5 13.2 38 9.5 ENE 7 13 4 7 1017.5 - 0.0
25/01:30pm 27.8 26.6 11.7 36 9.5 E 9 13 5 7 1017.9 - 0.0
25/01:00pm 27.4 26.0 12.3 39 9.0 ENE 11 19 6 10 1018.2 - 0.0
25/12:30pm 26.7 25.9 12.9 42 8.3 E 9 17 5 9 1018.5 - 0.0
25/12:00pm 25.7 24.9 12.8 44 7.7 E 9 15 5 8 1019.0 1015.6 0.0
25/11:30am 25.2 24.7 13.8 49 6.9 E 9 15 5 8 1019.6 - 0.0
25/11:00am 24.7 24.0 14.2 52 6.4 E 11 15 6 8 1019.8 - 0.0
25/10:30am 23.6 23.2 14.2 55 5.7 SSE 9 17 5 9 1020.1 - 0.0
25/10:00am 22.3 21.9 14.0 59 5.0 ENE 9 13 5 7 1020.2 - 0.0
25/09:30am 21.8 21.7 13.9 61 4.7 E 7 13 4 7 1020.2 - 0.0
25/09:00am 21.1 21.2 14.4 65 4.0 E 7 13 4 7 1020.0 1016.6 0.0
25/08:30am 20.1 20.2 14.4 69 3.4 ESE 7 9 4 5 1019.9 - 0.0
25/08:00am 18.8 19.7 14.1 74 2.8 SE 2 7 1 4 1019.7 - 0.0
25/07:30am 17.5 19.3 15.5 88 1.2 CALM 0 0 0 0 1019.2 - 0.0
25/07:00am 16.3 16.5 14.3 88 1.2 W 6 6 3 3 1018.8 - 0.0
25/06:30am 16.5 17.4 13.9 84 1.5 N 2 6 1 3 1018.4 - 0.0
25/06:00am 17.5 17.5 14.1 80 2.0 NE 7 7 4 4 1018.2 1014.6 0.0
25/05:30am 17.7 18.5 13.6 77 2.4 E 2 7 1 4 1017.8 - 0.0
25/05:00am 18.4 19.5 13.6 73 2.8 CALM 0 0 0 0 1017.6 - 0.0
25/04:30am 18.8 20.0 13.7 72 3.0 CALM 0 2 0 1 1017.4 - 0.0
25/04:00am 19.1 19.2 13.9 72 3.1 SSE 6 9 3 5 1017.2 - 0.0
25/03:30am 20.0 20.8 13.7 67 3.7 E 2 9 1 5 1017.1 - 0.0
25/03:00am 20.6 21.2 14.2 66 3.8 SSE 4 7 2 4 1017.2 1013.7 0.0
25/02:30am 21.3 21.4 13.9 62 4.4 SE 6 9 3 5 1017.5 - 0.0
25/02:00am 21.2 21.5 14.4 65 4.1 SE 6 9 3 5 1017.8 - 0.0
25/01:30am 21.2 21.2 14.2 64 4.2 SSE 7 9 4 5 1018.3 - 0.0
25/01:00am 21.6 21.7 13.9 61 4.6 ESE 6 7 3 4 1018.5 - 0.0
25/12:30am 21.9 23.2 14.2 61 4.6 CALM 0 0 0 0 1018.6 - 0.0
25/12:00am 22.3 22.4 13.8 58 5.1 SSE 6 9 3 5 1019.1 1015.7 0.0
 
Date/Time
EDT
Temp
°C
App
Temp
°C
Dew
Point
°C
Rel
Hum
%
Delta-T
°C
Wind Press
QNH
hPa
Press
MSL
hPa
Rain since
9am
mm
Dir  Spd
km/h
Gust
km/h
Spd
kts
Gust
kts
24/11:30pm 22.4 22.6 14.8 62 4.6 NNW 7 11 4 6 1019.2 - 0.0
24/11:00pm 23.3 22.7 13.4 53 5.9 S 9 15 5 8 1019.8 - 0.0
24/10:30pm 23.4 23.4 13.7 54 5.8 WSW 6 11 3 6 1019.7 - 0.0
24/10:00pm 23.8 22.9 13.6 52 6.1 E 11 15 6 8 1019.0 - 0.0
24/09:30pm 24.3 23.1 13.9 52 6.3 E 13 19 7 10 1018.8 - 0.0
24/09:00pm 25.1 24.5 13.5 48 7.0 ESE 9 17 5 9 1018.5 1015.2 0.0
24/08:30pm 25.2 23.4 11.0 41 8.2 ESE 11 15 6 8 1018.2 - 0.0
24/08:00pm 26.7 24.7 7.3 29 10.6 SE 7 9 4 5 1017.6 - 0.0
24/07:30pm 27.2 25.4 7.9 29 10.7 SE 7 11 4 6 1017.2 - 0.0
24/07:00pm 28.4 26.0 8.8 29 11.1 ESE 11 15 6 8 1017.1 - 0.0
24/06:30pm 29.9 26.9 7.8 25 12.4 E 13 19 7 10 1017.0 - 0.0
24/06:00pm 31.1 26.9 5.9 20 13.8 E 17 20 9 11 1016.9 1013.4 0.0
24/05:30pm 31.4 27.6 5.8 20 14.0 E 15 20 8 11 1016.8 - 0.0
24/05:00pm 32.3 30.8 10.5 26 12.9 SE 9 15 5 8 1016.8 - 0.0
24/04:30pm 32.7 30.8 10.6 25 13.1 SSE 11 17 6 9 1016.9 - 0.0
24/04:00pm 32.2 29.4 10.1 25 13.0 S 15 26 8 14 1017.1 - 0.0
24/03:30pm 32.3 29.8 9.7 24 13.2 SSE 13 19 7 10 1017.5 - 0.0
24/03:00pm 32.0 28.5 8.9 24 13.3 SSE 17 32 9 17 1017.9 1014.4 0.0
24/02:30pm 32.6 30.1 11.2 27 12.8 SSE 15 26 8 14 1018.1 - 0.0
24/02:00pm 31.3 27.8 8.8 24 12.9 S 17 26 9 14 1018.7 - 0.0
24/01:30pm 30.5 28.3 10.8 29 11.6 SSW 13 26 7 14 1019.2 - 0.0
24/01:00pm 29.9 28.2 12.3 33 10.6 SSW 13 20 7 11 1019.6 - 0.0
24/12:30pm 29.1 27.0 11.1 32 10.6 SSW 13 22 7 12 1020.1 - 0.0
24/12:00pm 27.9 26.8 13.2 40 8.9 SSW 11 19 6 10 1020.6 1017.2 0.0
24/11:30am 27.1 25.6 13.0 41 8.5 SW 13 19 7 10 1021.0 - 0.0
24/11:00am 26.3 25.0 13.6 45 7.7 S 13 19 7 10 1021.4 - 0.0
24/10:30am 25.2 24.5 14.4 51 6.6 WSW 11 19 6 10 1021.6 - 0.0
24/10:00am 24.1 23.7 14.0 53 6.1 S 9 17 5 9 1021.6 - 0.0
24/09:30am 22.7 23.3 15.9 65 4.2 E 7 9 4 5 1021.5 - 0.0
24/09:00am 21.1 21.5 15.2 69 3.6 NE 7 9 4 5 1021.5 1018.0 0.0
24/08:30am 20.0 20.9 15.2 74 2.9 E 4 7 2 4 1021.4 - 0.0
24/08:00am 18.7 20.2 15.6 82 1.9 NNW 2 7 1 4 1021.2 - 0.0
24/07:30am 16.6 17.7 14.6 88 1.2 S 2 6 1 3 1021.0 - 0.0
24/07:00am 15.5 16.1 13.1 85 1.4 NW 2 7 1 4 1020.7 - 0.0
24/06:30am 16.1 17.1 13.1 82 1.7 CALM 0 0 0 0 1020.1 - 0.0
24/06:00am 16.9 17.1 11.9 72 2.8 SW 2 6 1 3 1019.7 1016.2 0.0
24/05:30am 17.2 16.7 11.9 71 3.0 SW 6 9 3 5 1019.6 - 0.0
24/05:00am 17.5 17.4 12.2 71 3.0 S 4 7 2 4 1019.3 - 0.0
24/04:30am 17.5 18.4 12.8 74 2.7 CALM 0 0 0 0 1019.2 - 0.0
24/04:00am 17.8 17.1 13.3 75 2.6 SW 9 11 5 6 1019.2 - 0.0
24/03:30am 18.0 19.1 13.4 74 2.7 CALM 0 0 0 0 1019.3 - 0.0
24/03:00am 17.7 18.8 13.6 77 2.4 CALM 0 7 0 4 1019.5 1016.0 0.0
24/02:30am 18.3 19.5 13.7 74 2.7 CALM 0 0 0 0 1019.8 - 0.0
24/02:00am 18.9 20.0 13.6 71 3.1 CALM 0 0 0 0 1020.1 - 0.0
24/01:30am 19.3 20.5 13.7 70 3.3 CALM 0 0 0 0 1020.3 - 0.0
24/01:00am 19.6 19.4 13.7 68 3.5 SE 7 7 4 4 1020.7 - 0.0
24/12:30am 19.8 19.6 13.7 68 3.6 SE 7 7 4 4 1020.9 - 0.0
24/12:00am 19.9 19.5 14.2 69 3.4 SE 9 13 5 7 1021.0 1017.5 0.0
 
Date/Time
EDT
Temp
°C
App
Temp
°C
Dew
Point
°C
Rel
Hum
%
Delta-T
°C
Wind Press
QNH
hPa
Press
MSL
hPa
Rain since
9am
mm
Dir  Spd
km/h
Gust
km/h
Spd
kts
Gust
kts
23/11:30pm 20.4 20.0 14.0 66 3.8 ESE 9 13 5 7 1021.0 - 0.0
23/11:00pm 21.8 20.9 13.7 60 4.8 E 11 19 6 10 1021.1 - 0.0
23/10:30pm 22.3 21.0 13.8 58 5.1 E 13 19 7 10 1021.2 - 0.0
23/10:00pm 22.7 22.6 13.8 57 5.3 ENE 7 11 4 6 1021.2 - 0.0
23/09:30pm 23.7 22.4 13.7 53 6.0 ENE 13 22 7 12 1021.1 - 0.0
23/09:00pm 23.7 22.3 13.3 52 6.2 E 13 19 7 10 1020.8 1017.2 0.0
23/08:30pm 24.8 23.0 9.3 37 8.7 SE 9 13 5 7 1020.3 - 0.0
23/08:00pm 25.9 24.0 8.9 34 9.5 SE 9 11 5 6 1019.8 - 0.0
23/07:30pm 26.0 24.2 9.3 34 9.4 E 9 13 5 7 1019.5 - 0.0
23/07:00pm 27.4 25.0 10.0 33 10.0 ESE 13 17 7 9 1019.3 - 0.0
23/06:30pm 29.5 26.9 9.5 28 11.5 ESE 13 17 7 9 1019.1 - 0.0
23/06:00pm 30.6 27.7 6.7 22 13.2 SE 11 15 6 8 1018.8 1015.4 0.0
23/05:30pm 30.8 28.0 7.1 22 13.2 SSE 11 19 6 10 1018.7 - 0.0
23/05:00pm 31.1 27.9 7.0 22 13.4 SE 13 20 7 11 1018.6 - 0.0
23/04:30pm 31.4 28.7 7.3 22 13.5 S 11 19 6 10 1018.6 - 0.0
23/04:00pm 31.7 29.2 8.4 23 13.3 SE 11 15 6 8 1018.6 - 0.0
23/03:30pm 31.4 29.2 12.0 30 11.7 S 15 32 8 17 1018.8 - 0.0
23/03:00pm 31.0 28.8 13.2 33 10.9 SSE 17 26 9 14 1019.1 1015.6 0.0
23/02:30pm 29.9 27.8 12.5 34 10.5 SSE 15 30 8 16 1019.4 - 0.0
23/02:00pm 29.6 27.8 13.4 37 9.9 S 15 26 8 14 1019.7 - 0.0
23/01:30pm 29.3 27.7 13.8 38 9.5 SSW 15 24 8 13 1020.2 - 0.0
23/01:00pm 28.1 27.0 14.3 42 8.5 SSW 13 24 7 13 1020.6 - 0.0
23/12:30pm 28.0 28.1 15.6 46 7.8 SW 9 19 5 10 1020.8 - 0.0
23/12:00pm 27.0 26.3 15.3 48 7.3 SSW 13 19 7 10 1021.2 1017.8 0.0
23/11:30am 25.8 25.3 14.9 51 6.7 WSW 11 17 6 9 1021.6 - 0.0
23/11:00am 24.9 24.7 14.6 52 6.3 SW 9 17 5 9 1021.8 - 0.0
23/10:30am 23.2 23.3 13.9 56 5.6 NNE 6 11 3 6 1022.0 - 0.0
23/10:00am 22.3 22.6 15.1 63 4.4 E 7 11 4 6 1022.0 - 0.0
23/09:30am 21.1 21.1 15.2 69 3.6 ESE 9 13 5 7 1022.0 - 0.0
23/09:00am 20.1 19.9 14.6 70 3.3 E 9 11 5 6 1022.0 1018.6 0.0
23/08:30am 19.3 19.5 14.8 75 2.7 SSE 7 9 4 5 1022.0 - 0.0
23/08:00am 18.2 18.5 14.9 81 2.0 SE 7 11 4 6 1021.8 - 0.0
23/07:30am 17.0 18.6 15.0 88 1.2 CALM 0 0 0 0 1021.6 - 0.0
23/07:00am 14.5 15.6 13.5 94 0.6 CALM 0 0 0 0 1021.3 - 0.0
23/06:30am 14.2 15.2 13.3 94 0.5 CALM 0 0 0 0 1021.2 - 0.0
23/06:00am 14.9 14.8 13.3 90 0.9 NW 6 7 3 4 1021.0 1017.5 0.0
23/05:30am 15.4 15.2 13.5 88 1.1 NW 7 9 4 5 1020.7 - 0.0
23/05:00am 15.2 15.5 13.5 89 1.0 NW 4 7 2 4 1020.6 - 0.0
23/04:30am 15.7 15.8 13.8 88 1.1 NNW 6 7 3 4 1020.6 - 0.0
23/04:00am 16.4 16.3 14.0 86 1.4 N 7 9 4 5 1020.6 - 0.0
23/03:30am 16.8 16.3 13.7 82 1.8 N 9 13 5 7 1020.6 - 0.0
23/03:00am 17.1 16.7 14.0 82 1.8 N 9 13 5 7 1020.7 1017.2 0.0
23/02:30am 17.3 16.6 14.2 82 1.8 N 11 15 6 8 1020.8 - 0.0
23/02:00am 17.6 17.2 14.2 80 2.0 N 9 11 5 6 1020.9 - 0.0
23/01:30am 18.0 18.0 14.3 79 2.2 N 7 9 4 5 1021.2 - 0.0
23/01:00am 18.1 17.8 14.4 79 2.2 NNE 9 13 5 7 1021.4 - 0.0
23/12:30am 18.3 18.4 14.4 78 2.3 NNE 7 11 4 6 1021.6 - 0.0
23/12:00am 18.7 18.4 14.5 76 2.5 NNE 9 11 5 6 1021.7 1018.3 0.0
 
Date/Time
EDT
Temp
°C
App
Temp
°C
Dew
Point
°C
Rel
Hum
%
Delta-T
°C
Wind Press
QNH
hPa
Press
MSL
hPa
Rain since
9am
mm
Dir  Spd
km/h
Gust
km/h
Spd
kts
Gust
kts
22/11:30pm 18.8 18.6 14.6 76 2.5 NE 9 15 5 8 1021.7 - 0.0
22/11:00pm 19.3 18.9 14.2 72 3.0 NNE 9 11 5 6 1021.7 - 0.0
22/10:30pm 19.7 19.3 14.1 70 3.3 NE 9 13 5 7 1021.5 - 0.0

Other Formats:

Comma delimited format used in spreadsheet applications
http://www.bom.gov.au/fwo/IDN60801/IDN60801.94541.axf

JavaScript Object Notation format (JSON) in row-major order
http://www.bom.gov.au/fwo/IDN60801/IDN60801.94541.json